Time;durP1;ratioP1;P1;durP2;ratioP2;P2;SDS_P1;SDS_P2;PMS_P1;PMS_P2;Temp;Humidity;BMP_temperature;BMP_pressure;BME280_temperature;BME280_humidity;BME280_pressure;Samples;Min_cycle;Max_cycle;Signal;HPM_P1;HPM_P2
2022/10/25 00:02:13;;;;;;;53.03;22.63;;;1.30;99.90;;;;;;4799094;29;20149;-74
2022/10/25 00:04:42;;;;;;;54.38;22.55;;;1.30;99.90;;;;;;4799486;29;20116;-74
2022/10/25 00:07:09;;;;;;;59.95;22.52;;;1.20;99.90;;;;;;4803029;29;20136;-74
2022/10/25 00:09:36;;;;;;;66.88;24.20;;;1.30;99.90;;;;;;4795387;29;20050;-75
2022/10/25 00:12:04;;;;;;;62.25;22.63;;;1.30;99.90;;;;;;4817024;29;20063;-73
2022/10/25 00:14:32;;;;;;;53.40;21.75;;;1.30;99.90;;;;;;4786812;29;20065;-73
2022/10/25 00:16:59;;;;;;;59.92;23.17;;;1.30;99.90;;;;;;4802066;29;20523;-73
2022/10/25 00:19:26;;;;;;;54.90;24.65;;;1.30;99.90;;;;;;4803853;29;20078;-73
2022/10/25 00:21:55;;;;;;;60.90;22.25;;;1.30;99.90;;;;;;4786981;29;20065;-73
2022/10/25 00:24:22;;;;;;;60.33;22.77;;;1.30;99.90;;;;;;4802669;29;20146;-73
2022/10/25 00:26:49;;;;;;;55.35;22.40;;;1.30;99.90;;;;;;4800189;29;20047;-73
2022/10/25 00:29:17;;;;;;;61.15;25.00;;;1.30;99.90;;;;;;4802701;29;20046;-74
2022/10/25 00:31:44;;;;;;;56.00;24.27;;;1.30;99.90;;;;;;4801407;29;20516;-74
2022/10/25 00:34:11;;;;;;;58.58;24.55;;;1.30;99.90;;;;;;4787284;29;20547;-74
2022/10/25 00:36:39;;;;;;;45.95;22.30;;;1.30;99.90;;;;;;4800972;29;20082;-74
2022/10/25 00:39:07;;;;;;;59.92;25.13;;;1.30;99.90;;;;;;4796478;29;20414;-74
2022/10/25 00:41:34;;;;;;;58.80;24.63;;;1.30;99.90;;;;;;4799211;29;20047;-74
2022/10/25 00:44:35;;;;;;;64.20;24.58;;;1.30;99.90;;;;;;4803734;29;20512;-74
2022/10/25 00:47:02;;;;;;;63.80;24.92;;;1.30;99.90;;;;;;4798244;29;20051;-74
2022/10/25 00:49:31;;;;;;;58.20;22.90;;;1.30;99.90;;;;;;4816108;29;20055;-73
2022/10/25 00:52:02;;;;;;;52.80;23.48;;;1.30;99.90;;;;;;4817352;29;20543;-75
2022/10/25 00:54:36;;;;;;;50.17;24.08;;;1.30;99.90;;;;;;4800434;29;20050;-76
2022/10/25 00:57:09;;;;;;;64.32;24.15;;;1.20;99.90;;;;;;4800706;29;20050;-74
2022/10/25 00:59:38;;;;;;;57.10;23.77;;;1.30;99.90;;;;;;4801238;29;20055;-74
2022/10/25 01:02:05;;;;;;;55.70;22.58;;;1.20;99.90;;;;;;4801849;29;20051;-74
2022/10/25 01:04:34;;;;;;;55.60;24.33;;;1.30;99.90;;;;;;4801738;29;20606;-73
2022/10/25 01:07:02;;;;;;;59.97;22.90;;;1.30;99.90;;;;;;4799289;29;20078;-74
2022/10/25 01:09:34;;;;;;;53.00;24.05;;;1.30;99.90;;;;;;4787577;29;20073;-75
2022/10/25 01:12:01;;;;;;;58.63;24.60;;;1.30;99.90;;;;;;4816817;29;20054;-74
2022/10/25 01:14:28;;;;;;;61.05;23.80;;;1.30;99.90;;;;;;4800482;29;20150;-74
2022/10/25 01:17:07;;;;;;;48.25;23.70;;;1.20;99.90;;;;;;4801488;29;20057;-74
2022/10/25 01:19:51;;;;;;;77.50;23.10;;;1.20;99.90;;;;;;4816581;29;20124;-73
2022/10/25 01:22:23;;;;;;;62.33;22.58;;;1.20;99.90;;;;;;4803881;29;20547;-73
2022/10/25 01:25:24;;;;;;;55.25;24.60;;;1.20;99.90;;;;;;4799828;29;20047;-73
2022/10/25 01:28:03;;;;;;;57.42;22.20;;;1.20;99.90;;;;;;4803113;29;20145;-73
2022/10/25 01:30:51;;;;;;;58.45;24.02;;;1.10;99.90;;;;;;4803015;29;20057;-73
2022/10/25 01:33:26;;;;;;;61.03;23.42;;;1.10;99.90;;;;;;4799760;29;20059;-74
2022/10/25 01:35:58;;;;;;;60.25;24.00;;;1.10;99.90;;;;;;4800018;29;20051;-74
2022/10/25 01:38:33;;;;;;;53.50;23.60;;;1.00;99.90;;;;;;4787148;29;20165;-74
2022/10/25 01:41:11;;;;;;;57.90;23.20;;;1.00;99.90;;;;;;4800290;29;20520;-74
2022/10/25 01:43:46;;;;;;;62.38;23.85;;;1.00;99.90;;;;;;4799517;29;20058;-74
2022/10/25 01:46:21;;;;;;;57.72;24.88;;;1.00;99.90;;;;;;4802366;29;20057;-74
2022/10/25 01:48:55;;;;;;;51.13;23.02;;;1.00;99.90;;;;;;4801739;29;20139;-74
2022/10/25 01:51:26;;;;;;;50.70;21.75;;;1.00;99.90;;;;;;4800162;29;20543;-74
2022/10/25 01:53:53;;;;;;;54.55;23.83;;;1.00;99.90;;;;;;4800751;29;20405;-74
2022/10/25 01:56:25;;;;;;;52.03;21.25;;;1.00;99.90;;;;;;4800837;29;20063;-74
2022/10/25 01:59:20;;;;;;;50.53;23.85;;;1.00;99.90;;;;;;4802321;29;20063;-74
2022/10/25 02:02:00;;;;;;;64.88;22.00;;;1.00;99.90;;;;;;4812192;29;20055;-75
2022/10/25 02:04:39;;;;;;;51.20;22.25;;;1.00;99.90;;;;;;4801849;29;20477;-74
2022/10/25 02:07:10;;;;;;;62.60;24.88;;;0.90;99.90;;;;;;4786936;29;20079;-74
2022/10/25 02:09:49;;;;;;;55.33;22.50;;;0.90;99.90;;;;;;4799497;29;20055;-74
2022/10/25 02:12:30;;;;;;;53.65;22.02;;;0.80;99.90;;;;;;4801854;29;20051;-74
2022/10/25 02:15:04;;;;;;;43.65;21.85;;;0.80;99.90;;;;;;4784959;29;20054;-74
2022/10/25 02:17:36;;;;;;;49.80;21.55;;;0.70;99.90;;;;;;4785009;30;20475;-74
2022/10/25 02:20:06;;;;;;;58.92;21.98;;;0.70;99.90;;;;;;4798088;29;20051;-74
2022/10/25 02:22:35;;;;;;;57.03;24.55;;;0.70;99.90;;;;;;4802117;29;20481;-74
2022/10/25 02:25:03;;;;;;;59.78;22.77;;;0.70;99.90;;;;;;4802732;29;20063;-74
2022/10/25 02:27:32;;;;;;;59.00;22.92;;;0.60;99.90;;;;;;4800917;29;20082;-74
2022/10/25 02:29:59;;;;;;;52.17;22.75;;;0.60;99.90;;;;;;4799084;29;20520;-74
2022/10/25 02:32:26;;;;;;;49.13;22.92;;;0.60;99.90;;;;;;4799926;29;20440;-74
2022/10/25 02:34:55;;;;;;;52.38;23.38;;;0.50;99.90;;;;;;4802874;29;20066;-74
2022/10/25 02:37:22;;;;;;;56.75;23.80;;;0.50;99.90;;;;;;4799230;29;20412;-74
2022/10/25 02:39:51;;;;;;;50.90;22.83;;;0.50;99.90;;;;;;4800474;29;20054;-74
2022/10/25 02:42:18;;;;;;;73.38;23.17;;;0.50;99.90;;;;;;4801202;29;20133;-74
2022/10/25 02:44:45;;;;;;;50.40;22.73;;;0.50;99.90;;;;;;4801759;29;20551;-74
2022/10/25 02:47:12;;;;;;;47.35;22.08;;;0.50;99.90;;;;;;4782943;29;20050;-73
2022/10/25 02:49:40;;;;;;;56.33;22.15;;;0.40;99.90;;;;;;4800905;29;20054;-73
2022/10/25 02:52:10;;;;;;;55.15;22.92;;;0.50;99.90;;;;;;4798317;29;20087;-74
2022/10/25 02:54:37;;;;;;;44.58;21.90;;;0.40;99.90;;;;;;4802955;29;20053;-78
2022/10/25 02:57:04;;;;;;;57.15;22.90;;;0.40;99.90;;;;;;4797879;29;20142;-77
2022/10/25 02:59:31;;;;;;;52.30;22.75;;;0.50;99.90;;;;;;4799587;29;20147;-77
2022/10/25 03:01:58;;;;;;;52.38;22.50;;;0.40;99.90;;;;;;4800218;29;20082;-77
2022/10/25 03:04:25;;;;;;;57.67;24.52;;;0.50;99.90;;;;;;4798377;29;20349;-77
2022/10/25 03:06:53;;;;;;;55.20;24.15;;;0.50;99.90;;;;;;4799432;29;20485;-77
2022/10/25 03:09:21;;;;;;;52.25;22.23;;;0.50;99.90;;;;;;4802741;29;20059;-77
2022/10/25 03:11:48;;;;;;;56.58;23.38;;;0.50;99.90;;;;;;4803484;29;20047;-77
2022/10/25 03:14:15;;;;;;;49.28;21.00;;;0.50;99.90;;;;;;4801359;29;20120;-77
2022/10/25 03:16:42;;;;;;;48.83;21.83;;;0.50;99.90;;;;;;4804666;29;20509;-77
2022/10/25 03:19:10;;;;;;;49.00;22.33;;;0.50;99.90;;;;;;4805977;29;20062;-78
2022/10/25 03:21:39;;;;;;;60.80;22.63;;;0.50;99.90;;;;;;4789610;29;20074;-77
2022/10/25 03:24:07;;;;;;;50.78;24.05;;;0.50;99.90;;;;;;4803001;29;20094;-76
2022/10/25 03:26:36;;;;;;;53.38;23.45;;;0.50;99.90;;;;;;4803039;29;20054;-75
2022/10/25 03:29:03;;;;;;;47.22;21.25;;;0.50;99.90;;;;;;4804310;29;20061;-74
2022/10/25 03:31:30;;;;;;;50.28;21.00;;;0.50;99.90;;;;;;4796601;29;20039;-74
2022/10/25 03:33:57;;;;;;;50.88;22.52;;;0.50;99.90;;;;;;4801997;29;20069;-76
2022/10/25 03:36:25;;;;;;;43.80;21.30;;;0.40;99.90;;;;;;4804056;29;20504;-75
2022/10/25 03:38:52;;;;;;;48.25;20.95;;;0.40;99.90;;;;;;4804929;29;20051;-74
2022/10/25 03:41:19;;;;;;;54.60;21.10;;;0.40;99.90;;;;;;4800956;29;20052;-74
2022/10/25 03:43:47;;;;;;;44.92;20.60;;;0.40;99.90;;;;;;4804479;29;20055;-75
2022/10/25 03:46:14;;;;;;;40.50;20.38;;;0.30;99.90;;;;;;4804861;29;20054;-75
2022/10/25 03:48:42;;;;;;;44.55;21.35;;;0.30;99.90;;;;;;4803473;29;20612;-74
2022/10/25 03:51:09;;;;;;;53.10;21.30;;;0.30;99.90;;;;;;4798709;29;20051;-76
2022/10/25 03:53:36;;;;;;;43.88;19.48;;;0.40;99.90;;;;;;4789758;29;20067;-75
2022/10/25 03:56:03;;;;;;;49.40;21.02;;;0.30;99.90;;;;;;4803124;29;20127;-75
2022/10/25 03:58:30;;;;;;;46.78;20.98;;;0.40;99.90;;;;;;4804059;29;20043;-74
2022/10/25 04:00:59;;;;;;;48.38;20.23;;;0.40;99.90;;;;;;4803355;29;20063;-77
2022/10/25 04:03:27;;;;;;;44.28;21.63;;;0.50;99.90;;;;;;4801790;29;20115;-73
2022/10/25 04:05:54;;;;;;;52.05;20.33;;;0.50;99.90;;;;;;4787434;29;20051;-72
2022/10/25 04:08:21;;;;;;;50.67;21.33;;;0.50;99.90;;;;;;4788531;29;20047;-81
2022/10/25 04:10:48;;;;;;;55.97;21.67;;;0.40;99.90;;;;;;4803050;29;20050;-80
2022/10/25 04:13:16;;;;;;;47.85;21.02;;;0.30;99.90;;;;;;4800543;29;20516;-82
2022/10/25 04:15:43;;;;;;;55.00;20.60;;;0.30;99.90;;;;;;4805442;29;20054;-81
2022/10/25 04:18:11;;;;;;;47.60;20.67;;;0.30;99.90;;;;;;4805812;29;20055;-80
2022/10/25 04:20:39;;;;;;;56.22;21.10;;;0.20;99.90;;;;;;4803430;29;20062;-80
2022/10/25 04:23:06;;;;;;;45.10;20.73;;;0.20;99.90;;;;;;4805291;29;20688;-80
2022/10/25 04:25:33;;;;;;;50.75;21.63;;;0.20;99.90;;;;;;4796288;29;20069;-75
2022/10/25 04:28:01;;;;;;;48.97;20.13;;;0.20;99.90;;;;;;4786477;29;20050;-75
2022/10/25 04:30:28;;;;;;;52.95;21.17;;;0.10;99.90;;;;;;4785959;29;20055;-75
2022/10/25 04:32:57;;;;;;;47.10;19.13;;;0.10;99.90;;;;;;4785873;29;20591;-81
2022/10/25 04:35:26;;;;;;;53.35;20.60;;;0.10;99.90;;;;;;4777123;29;20054;-80
2022/10/25 04:37:57;;;;;;;50.72;20.10;;;0.10;99.90;;;;;;4820419;29;20059;-76
2022/10/25 04:40:25;;;;;;;46.78;18.80;;;0.00;99.90;;;;;;4784303;29;20055;-75
2022/10/25 04:42:52;;;;;;;41.10;17.98;;;0.10;99.90;;;;;;4804897;29;20141;-82
2022/10/25 04:45:20;;;;;;;34.83;18.23;;;0.00;99.90;;;;;;4804834;29;20104;-75
2022/10/25 04:47:47;;;;;;;47.28;19.38;;;0.00;99.90;;;;;;4804156;29;20055;-76
2022/10/25 04:50:17;;;;;;;44.33;19.33;;;0.10;99.90;;;;;;4805738;29;20141;-81
2022/10/25 04:52:48;;;;;;;42.80;19.35;;;0.10;99.90;;;;;;4806337;29;20051;-79
2022/10/25 04:55:16;;;;;;;38.15;18.13;;;0.10;99.90;;;;;;4788133;30;20105;-81
2022/10/25 04:57:43;;;;;;;40.83;18.42;;;0.10;99.90;;;;;;4801266;29;20059;-76
2022/10/25 05:00:16;;;;;;;42.88;18.05;;;0.00;99.90;;;;;;4795082;29;20063;-77
2022/10/25 05:02:43;;;;;;;49.10;18.20;;;0.00;99.90;;;;;;4800299;29;20055;-81
2022/10/25 05:05:10;;;;;;;37.78;18.88;;;0.00;99.90;;;;;;4802918;29;20059;-78
2022/10/25 05:07:37;;;;;;;38.00;17.42;;;0.00;99.90;;;;;;4802677;29;20059;-79
2022/10/25 05:10:06;;;;;;;33.40;17.05;;;-0.10;99.90;;;;;;4787710;29;20057;-74
2022/10/25 05:12:33;;;;;;;35.70;16.90;;;-0.10;99.90;;;;;;4804004;29;20566;-76
2022/10/25 05:15:00;;;;;;;36.83;16.48;;;-0.20;99.90;;;;;;4804157;29;20115;-77
2022/10/25 05:17:31;;;;;;;38.88;16.10;;;-0.20;99.90;;;;;;4810685;29;20067;-77
2022/10/25 05:19:58;;;;;;;42.38;16.38;;;-0.10;99.90;;;;;;4800567;29;20063;-77
2022/10/25 05:22:26;;;;;;;30.48;16.20;;;-0.10;99.90;;;;;;4803350;29;20086;-78
2022/10/25 05:24:53;;;;;;;32.08;15.80;;;-0.10;99.90;;;;;;4799660;29;20053;-77
2022/10/25 05:27:21;;;;;;;49.38;18.02;;;-0.10;99.90;;;;;;4803933;29;20078;-78
2022/10/25 05:29:48;;;;;;;33.80;16.50;;;0.00;99.90;;;;;;4817440;29;20082;-78
2022/10/25 05:32:15;;;;;;;41.15;16.08;;;0.00;99.90;;;;;;4802574;29;20064;-77
2022/10/25 05:34:42;;;;;;;35.95;16.15;;;0.00;99.90;;;;;;4801911;29;20154;-78
2022/10/25 05:37:10;;;;;;;32.47;15.57;;;0.00;99.90;;;;;;4799972;29;20065;-78
2022/10/25 05:39:37;;;;;;;43.28;16.85;;;0.00;99.90;;;;;;4800118;29;20116;-77
2022/10/25 05:42:05;;;;;;;42.58;17.42;;;0.10;99.90;;;;;;4783669;29;20384;-77
2022/10/25 05:44:34;;;;;;;42.55;17.25;;;0.10;99.90;;;;;;4799189;29;20116;-77
2022/10/25 05:47:01;;;;;;;37.38;16.98;;;0.10;99.90;;;;;;4802858;29;20443;-77
2022/10/25 05:49:28;;;;;;;44.17;17.13;;;0.10;99.90;;;;;;4803218;29;20162;-77
2022/10/25 05:51:55;;;;;;;43.90;16.58;;;0.10;99.90;;;;;;4802596;29;20050;-76
2022/10/25 05:54:23;;;;;;;38.15;17.58;;;0.10;99.90;;;;;;4802918;29;20535;-76
2022/10/25 05:56:50;;;;;;;43.65;17.10;;;0.10;99.90;;;;;;4801786;29;20074;-78
2022/10/25 05:59:17;;;;;;;45.10;16.98;;;0.10;99.90;;;;;;4788173;29;20058;-76
2022/10/25 06:01:46;;;;;;;43.90;18.25;;;0.20;99.90;;;;;;4786903;29;20055;-77
2022/10/25 06:04:14;;;;;;;42.97;16.85;;;0.20;99.90;;;;;;4817795;29;20054;-78
2022/10/25 06:06:43;;;;;;;38.28;15.75;;;0.20;99.90;;;;;;4802612;29;20474;-77
2022/10/25 06:09:11;;;;;;;37.00;16.02;;;0.30;99.90;;;;;;4800350;29;20500;-77
2022/10/25 06:11:39;;;;;;;33.13;13.63;;;0.20;99.90;;;;;;4806947;29;20115;-77
2022/10/25 06:14:07;;;;;;;34.17;15.55;;;0.20;99.90;;;;;;4806481;29;20058;-77
2022/10/25 06:16:34;;;;;;;32.03;12.77;;;0.30;99.90;;;;;;4786689;29;20123;-77
2022/10/25 06:19:03;;;;;;;32.22;14.93;;;0.30;99.90;;;;;;4785501;29;20085;-77
2022/10/25 06:21:31;;;;;;;23.27;13.05;;;0.40;99.90;;;;;;4804372;29;20070;-78
2022/10/25 06:23:59;;;;;;;27.27;13.40;;;0.40;99.90;;;;;;4818459;29;20051;-76
2022/10/25 06:26:28;;;;;;;28.83;12.95;;;0.40;99.90;;;;;;4819149;29;20093;-76
2022/10/25 06:28:57;;;;;;;30.52;14.15;;;0.40;99.90;;;;;;4783561;29;20150;-76
2022/10/25 06:31:24;;;;;;;27.80;12.93;;;0.40;99.90;;;;;;4822281;29;20432;-76
2022/10/25 06:33:51;;;;;;;20.90;11.93;;;0.50;99.90;;;;;;4801774;29;20528;-77
2022/10/25 06:36:22;;;;;;;29.50;12.52;;;0.60;99.90;;;;;;4790383;29;20047;-76
2022/10/25 06:38:50;;;;;;;27.95;15.32;;;0.60;99.90;;;;;;4802841;29;20055;-80
2022/10/25 06:41:22;;;;;;;29.98;13.75;;;0.70;99.90;;;;;;4812443;29;20050;-78
2022/10/25 06:43:50;;;;;;;32.00;13.07;;;0.70;99.90;;;;;;4802388;29;20086;-77
2022/10/25 06:46:21;;;;;;;28.30;13.80;;;0.70;99.90;;;;;;4820262;29;20547;-77
2022/10/25 06:48:48;;;;;;;22.83;11.65;;;0.80;99.90;;;;;;4811985;29;20082;-77
2022/10/25 06:51:16;;;;;;;29.40;12.65;;;0.80;99.90;;;;;;4812160;29;20050;-78
2022/10/25 06:53:45;;;;;;;37.90;12.68;;;0.90;99.90;;;;;;4805965;29;20066;-77
2022/10/25 06:56:13;;;;;;;27.65;13.63;;;1.00;99.90;;;;;;4820181;29;20422;-76
2022/10/25 06:58:40;;;;;;;32.17;13.68;;;1.00;99.90;;;;;;4816608;29;20488;-78
2022/10/25 07:01:15;;;;;;;28.00;14.55;;;1.00;99.90;;;;;;4805034;29;20111;-77
2022/10/25 07:03:44;;;;;;;33.35;14.30;;;1.10;99.90;;;;;;4797336;29;20074;-78
2022/10/25 07:06:13;;;;;;;42.47;14.68;;;1.10;99.90;;;;;;4805335;29;20043;-79
2022/10/25 07:08:41;;;;;;;28.30;13.38;;;1.10;99.90;;;;;;4816526;29;20057;-78
2022/10/25 07:11:14;;;;;;;35.20;12.82;;;1.20;99.90;;;;;;4805465;29;20589;-78
2022/10/25 07:13:41;;;;;;;45.35;14.10;;;1.30;99.90;;;;;;4818290;29;20060;-79
2022/10/25 07:16:10;;;;;;;30.08;14.20;;;1.40;99.90;;;;;;4825175;29;20050;-77
2022/10/25 07:18:38;;;;;;;37.22;13.98;;;1.50;99.90;;;;;;4797356;29;20055;-77
2022/10/25 07:21:07;;;;;;;30.48;13.50;;;1.60;99.90;;;;;;4818925;29;20062;-76
2022/10/25 07:23:40;;;;;;;27.02;11.95;;;1.70;99.90;;;;;;4807487;29;20093;-77
2022/10/25 07:26:08;;;;;;;21.20;11.10;;;1.80;99.90;;;;;;4802176;29;20055;-75
2022/10/25 07:28:36;;;;;;;26.15;11.82;;;1.90;99.90;;;;;;4809161;29;20149;-77
2022/10/25 07:31:03;;;;;;;32.95;12.30;;;2.00;99.90;;;;;;4807374;29;20046;-77
2022/10/25 07:33:31;;;;;;;36.90;13.15;;;2.10;99.90;;;;;;4803334;29;20830;-75
2022/10/25 07:35:59;;;;;;;25.95;12.20;;;2.30;99.90;;;;;;4811759;29;20500;-76
2022/10/25 07:38:26;;;;;;;29.23;11.43;;;2.80;99.90;;;;;;4800813;29;20082;-77
2022/10/25 07:40:56;;;;;;;34.65;12.45;;;3.60;99.90;;;;;;4803330;29;20051;-77
2022/10/25 07:43:24;;;;;;;33.28;13.00;;;4.50;99.90;;;;;;4815572;29;20047;-77
2022/10/25 07:45:53;;;;;;;29.95;12.68;;;5.40;99.90;;;;;;4811467;29;20057;-77
2022/10/25 07:48:21;;;;;;;27.85;12.38;;;6.70;99.90;;;;;;4798291;29;20066;-77
2022/10/25 07:50:48;;;;;;;33.13;11.88;;;7.80;99.90;;;;;;4804318;29;20065;-76
2022/10/25 07:53:15;;;;;;;28.60;12.02;;;9.10;99.90;;;;;;4799848;29;20062;-77
2022/10/25 07:55:43;;;;;;;28.92;11.93;;;10.20;99.90;;;;;;4814731;29;20054;-76
2022/10/25 07:58:11;;;;;;;29.60;11.75;;;11.20;99.90;;;;;;4818591;29;20055;-76
2022/10/25 08:00:39;;;;;;;26.45;11.75;;;11.90;99.90;;;;;;4802292;29;20055;-78
2022/10/25 08:03:07;;;;;;;24.42;12.75;;;12.50;99.90;;;;;;4817101;29;20499;-76
2022/10/25 08:05:35;;;;;;;25.52;12.45;;;13.10;99.90;;;;;;4817889;29;20058;-77
2022/10/25 08:08:03;;;;;;;29.00;12.10;;;13.70;98.80;;;;;;4822077;29;20054;-76
2022/10/25 08:10:33;;;;;;;35.13;13.43;;;14.20;95.00;;;;;;4803948;29;20520;-75
2022/10/25 08:13:00;;;;;;;31.08;14.70;;;14.70;93.60;;;;;;4803390;29;20408;-76
2022/10/25 08:15:27;;;;;;;25.20;13.00;;;15.10;89.10;;;;;;4810099;29;20058;-76
2022/10/25 08:17:58;;;;;;;25.90;13.65;;;15.40;87.80;;;;;;4810297;29;20106;-87
2022/10/25 08:20:28;;;;;;;30.13;13.32;;;15.60;83.70;;;;;;4804826;29;20508;-75
2022/10/25 08:22:58;;;;;;;26.60;14.02;;;15.90;83.00;;;;;;4828957;29;20506;-75
2022/10/25 08:25:26;;;;;;;27.15;14.15;;;16.10;80.70;;;;;;4804038;29;20588;-76
2022/10/25 08:27:53;;;;;;;31.52;15.05;;;16.30;78.80;;;;;;4814781;29;20568;-75
2022/10/25 08:30:21;;;;;;;19.80;12.60;;;16.50;77.20;;;;;;4809936;29;20462;-75
2022/10/25 08:32:48;;;;;;;24.70;13.10;;;16.70;75.10;;;;;;4796819;29;20467;-75
2022/10/25 08:35:15;;;;;;;30.50;13.02;;;16.70;74.00;;;;;;4803922;29;20078;-77
2022/10/25 08:37:44;;;;;;;22.98;13.35;;;16.90;74.80;;;;;;4803199;29;20051;-76
2022/10/25 08:40:19;;;;;;;25.38;12.20;;;17.20;73.00;;;;;;4804499;29;20046;-76
2022/10/25 08:43:05;;;;;;;23.52;11.50;;;17.10;69.30;;;;;;4803951;29;20050;-78
2022/10/25 08:45:37;;;;;;;23.75;11.90;;;17.20;71.00;;;;;;4803137;29;20055;-77
2022/10/25 08:48:11;;;;;;;25.63;12.40;;;17.50;69.70;;;;;;4800454;29;20090;-76
2022/10/25 08:50:42;;;;;;;23.00;12.77;;;17.50;68.20;;;;;;4803705;29;20722;-78
2022/10/25 08:53:17;;;;;;;25.13;11.90;;;17.50;68.10;;;;;;4803581;29;20108;-78
2022/10/25 08:55:46;;;;;;;19.90;11.70;;;17.60;67.90;;;;;;4804585;29;20058;-77
2022/10/25 08:58:17;;;;;;;19.77;11.23;;;17.60;65.20;;;;;;4802074;29;20528;-78
2022/10/25 09:00:45;;;;;;;18.95;10.63;;;17.50;66.10;;;;;;4796298;29;20044;-76
2022/10/25 09:03:15;;;;;;;21.35;10.80;;;17.70;67.20;;;;;;4798401;29;20050;-76
2022/10/25 09:05:51;;;;;;;18.45;10.45;;;17.90;65.30;;;;;;4801305;29;20059;-77
2022/10/25 09:08:35;;;;;;;21.23;9.43;;;18.40;65.30;;;;;;4800946;29;20103;-77
2022/10/25 09:11:12;;;;;;;15.05;10.65;;;18.70;64.10;;;;;;4804139;29;20130;-77
2022/10/25 09:13:48;;;;;;;19.52;10.13;;;18.90;63.80;;;;;;4801984;29;20054;-77
2022/10/25 09:16:18;;;;;;;17.50;8.40;;;19.00;63.20;;;;;;4801286;29;20055;-76
2022/10/25 09:18:49;;;;;;;16.90;8.55;;;18.80;62.00;;;;;;4801559;29;20051;-76
2022/10/25 09:21:20;;;;;;;16.63;7.70;;;18.10;62.70;;;;;;4787258;29;20054;-76
2022/10/25 09:23:58;;;;;;;15.65;7.60;;;17.30;64.10;;;;;;4803537;29;20061;-78
2022/10/25 09:26:40;;;;;;;14.43;6.55;;;16.70;65.00;;;;;;4800025;29;20059;-76
2022/10/25 09:29:18;;;;;;;15.93;6.65;;;15.80;66.50;;;;;;4797766;29;20390;-77
2022/10/25 09:31:50;;;;;;;15.00;7.07;;;14.90;70.30;;;;;;4800639;29;20070;-75
2022/10/25 09:34:20;;;;;;;9.25;6.13;;;13.90;71.40;;;;;;4799573;29;20149;-78
2022/10/25 09:36:53;;;;;;;10.18;5.75;;;13.40;74.10;;;;;;4802320;29;20134;-76
2022/10/25 09:39:30;;;;;;;12.40;4.75;;;13.20;74.50;;;;;;4798052;29;20058;-76
2022/10/25 09:42:00;;;;;;;9.75;4.80;;;12.70;77.00;;;;;;4802327;29;20062;-76
2022/10/25 09:44:37;;;;;;;10.15;4.57;;;12.10;77.80;;;;;;4796992;29;20054;-77
2022/10/25 09:47:14;;;;;;;7.95;4.30;;;11.70;80.00;;;;;;4806708;29;20097;-77
2022/10/25 09:49:50;;;;;;;9.93;4.80;;;11.60;81.20;;;;;;4783655;29;20146;-76
2022/10/25 09:52:24;;;;;;;8.48;4.45;;;11.60;81.10;;;;;;4801014;29;20047;-76
2022/10/25 09:55:00;;;;;;;8.70;4.38;;;11.80;82.60;;;;;;4801676;29;20047;-76
2022/10/25 09:57:28;;;;;;;8.73;4.35;;;12.10;80.50;;;;;;4797503;29;20057;-77
2022/10/25 09:59:55;;;;;;;14.88;5.28;;;12.20;79.80;;;;;;4802399;29;20062;-77
2022/10/25 10:02:24;;;;;;;6.65;3.45;;;12.20;80.80;;;;;;4797618;29;20147;-77
2022/10/25 10:04:52;;;;;;;16.13;3.85;;;12.20;81.20;;;;;;4802386;29;20046;-77
2022/10/25 10:07:24;;;;;;;9.95;4.22;;;12.20;82.00;;;;;;4798621;29;20053;-78
2022/10/25 10:09:57;;;;;;;4.43;3.03;;;12.40;83.00;;;;;;4800338;29;20050;-76
2022/10/25 10:12:28;;;;;;;6.88;3.22;;;12.50;79.70;;;;;;4780593;29;20085;-78
2022/10/25 10:15:00;;;;;;;9.05;3.10;;;12.70;77.90;;;;;;4799452;29;20119;-77
2022/10/25 10:17:29;;;;;;;5.63;3.03;;;12.70;77.80;;;;;;4801396;29;20106;-78
2022/10/25 10:20:12;;;;;;;5.40;2.88;;;12.40;78.00;;;;;;4799882;29;20055;-77
2022/10/25 10:22:47;;;;;;;6.20;3.50;;;12.10;79.20;;;;;;4812322;29;20112;-75
2022/10/25 10:25:22;;;;;;;10.10;2.80;;;11.80;80.40;;;;;;4806426;29;20086;-75
2022/10/25 10:27:52;;;;;;;11.95;3.42;;;11.40;81.30;;;;;;4812581;29;20541;-75
2022/10/25 10:30:23;;;;;;;7.97;3.00;;;11.10;81.80;;;;;;4796728;29;20050;-76
2022/10/25 10:32:59;;;;;;;5.82;3.05;;;11.00;82.60;;;;;;4797231;29;20119;-78
2022/10/25 10:35:29;;;;;;;7.00;3.45;;;10.60;83.20;;;;;;4797232;29;20186;-76
2022/10/25 10:38:22;;;;;;;7.68;3.33;;;10.40;84.80;;;;;;4798609;29;20078;-77
2022/10/25 10:40:51;;;;;;;4.50;3.08;;;10.30;86.90;;;;;;4797562;29;20150;-76
2022/10/25 10:43:30;;;;;;;9.02;3.25;;;10.70;86.70;;;;;;4813102;29;20051;-76
2022/10/25 10:46:04;;;;;;;6.05;3.05;;;11.20;85.60;;;;;;4797756;29;20531;-77
2022/10/25 10:48:35;;;;;;;6.55;2.88;;;11.80;83.60;;;;;;4796812;29;20058;-75
2022/10/25 10:51:03;;;;;;;7.13;2.65;;;12.10;81.30;;;;;;4796323;29;20050;-76
2022/10/25 10:53:32;;;;;;;5.05;2.58;;;12.10;81.10;;;;;;4799162;29;20051;-76
2022/10/25 10:56:02;;;;;;;5.68;2.70;;;12.10;80.30;;;;;;4800486;29;20058;-76
2022/10/25 10:58:33;;;;;;;3.78;2.33;;;11.60;81.40;;;;;;4795482;29;20082;-76
2022/10/25 11:01:02;;;;;;;5.78;2.30;;;11.40;82.20;;;;;;4795086;29;20424;-76
2022/10/25 11:03:37;;;;;;;4.20;2.50;;;11.60;82.00;;;;;;4795382;29;20051;-76
2022/10/25 11:06:07;;;;;;;5.57;1.92;;;12.00;82.20;;;;;;4797499;29;20051;-76
2022/10/25 11:08:34;;;;;;;4.57;1.95;;;12.30;81.70;;;;;;4797869;29;20086;-75
2022/10/25 11:11:18;;;;;;;4.15;2.05;;;12.80;81.20;;;;;;4798596;29;20044;-76
2022/10/25 11:13:53;;;;;;;6.32;2.08;;;13.30;80.10;;;;;;4799395;29;20054;-76
2022/10/25 11:16:44;;;;;;;5.63;2.10;;;13.40;80.00;;;;;;4797835;29;20086;-76
2022/10/25 11:19:26;;;;;;;4.30;2.58;;;13.40;78.90;;;;;;4800342;29;20067;-76
2022/10/25 11:22:17;;;;;;;7.57;2.40;;;13.70;79.30;;;;;;4796677;29;20065;-77
2022/10/25 11:24:55;;;;;;;20.77;2.42;;;14.60;77.30;;;;;;4781763;29;20469;-77
2022/10/25 11:27:37;;;;;;;4.93;2.05;;;15.50;74.70;;;;;;4799973;29;20111;-76
2022/10/25 11:30:10;;;;;;;3.72;2.30;;;16.10;70.60;;;;;;4799143;29;20051;-78
2022/10/25 11:33:17;;;;;;;5.93;2.50;;;16.50;69.90;;;;;;4802474;29;20043;-77
2022/10/25 11:36:00;;;;;;;3.55;2.42;;;16.70;67.70;;;;;;4814660;29;20110;-77
2022/10/25 11:38:38;;;;;;;2.90;2.45;;;16.90;67.20;;;;;;4802344;29;20153;-77
2022/10/25 11:41:17;;;;;;;4.85;2.80;;;16.80;64.70;;;;;;4800195;29;20077;-77
2022/10/25 11:43:59;;;;;;;5.50;2.22;;;16.30;67.30;;;;;;4803787;29;20055;-77
2022/10/25 11:46:33;;;;;;;4.53;2.65;;;16.30;66.40;;;;;;4799798;29;20131;-77
2022/10/25 11:49:16;;;;;;;4.90;2.72;;;16.50;65.00;;;;;;4794057;29;20611;-78
2022/10/25 11:51:55;;;;;;;7.07;2.25;;;16.90;64.70;;;;;;4817824;29;20163;-80
2022/10/25 11:54:36;;;;;;;4.97;2.55;;;16.80;63.20;;;;;;4816271;29;20431;-80
2022/10/25 11:57:13;;;;;;;3.28;2.58;;;17.30;62.10;;;;;;4820240;29;20058;-78
2022/10/25 11:59:56;;;;;;;4.28;2.53;;;17.20;60.80;;;;;;4817046;29;20059;-78
2022/10/25 12:02:37;;;;;;;;;;;17.10;62.60;;;;;;4799281;29;20054;-78
2022/10/25 12:05:23;;;;;;;8.05;2.85;;;17.30;62.90;;;;;;4809868;29;20154;-77
2022/10/25 12:07:56;;;;;;;6.13;2.60;;;17.60;60.30;;;;;;4808251;29;20061;-80
2022/10/25 12:10:32;;;;;;;9.25;2.95;;;18.00;59.90;;;;;;4805708;29;20492;-79
2022/10/25 12:13:02;;;;;;;6.65;3.10;;;17.30;58.90;;;;;;4822692;29;20054;-78
2022/10/25 12:15:37;;;;;;;4.05;2.75;;;15.80;61.70;;;;;;4818166;29;20081;-77
2022/10/25 12:18:06;;;;;;;12.05;3.47;;;14.60;66.20;;;;;;4817110;29;20092;-79
2022/10/25 12:20:36;;;;;;;8.50;3.50;;;13.40;69.20;;;;;;4811159;29;20103;-78
2022/10/25 12:23:09;;;;;;;8.82;3.80;;;12.80;73.00;;;;;;4809920;29;20083;-78
2022/10/25 12:25:41;;;;;;;6.55;4.15;;;12.50;74.50;;;;;;4832253;29;20058;-79
2022/10/25 12:28:18;;;;;;;8.75;3.30;;;12.40;74.50;;;;;;4805204;29;20058;-79
2022/10/25 12:30:48;;;;;;;8.00;3.75;;;12.50;74.20;;;;;;4818743;29;20071;-79
2022/10/25 12:33:24;;;;;;;5.70;3.05;;;12.20;74.00;;;;;;4816500;29;20156;-77
2022/10/25 12:35:56;;;;;;;7.60;2.97;;;11.70;74.60;;;;;;4806517;29;20078;-79
2022/10/25 12:38:29;;;;;;;5.25;3.22;;;11.10;76.60;;;;;;4806398;29;20058;-80
2022/10/25 12:41:00;;;;;;;6.38;3.30;;;10.60;80.30;;;;;;4801612;29;20054;-77
2022/10/25 12:43:34;;;;;;;7.22;3.15;;;10.30;80.20;;;;;;4803425;29;20664;-78
2022/10/25 12:46:38;;;;;;;10.45;3.08;;;10.40;81.80;;;;;;4802360;29;20062;-77
2022/10/25 12:49:28;;;;;;;10.02;3.25;;;10.30;81.80;;;;;;4801852;29;20074;-75
2022/10/25 12:52:19;;;;;;;6.20;2.80;;;9.70;83.20;;;;;;4797943;29;20055;-76
2022/10/25 12:55:22;;;;;;;3.92;2.90;;;9.20;84.50;;;;;;4818097;29;20059;-81
2022/10/25 12:58:00;;;;;;;4.07;2.23;;;8.60;85.70;;;;;;4805977;29;20074;-78
2022/10/25 13:00:35;;;;;;;6.35;2.28;;;8.20;87.10;;;;;;4799886;29;20055;-77